Milane, Texas
Current Conditions -  °F | °C
As of 6:32 PM on Thursday 18 Dec 2014 (Local Time) from KAQV Reporting Station
Overcast Overcast  
Wind Chill: 54°   Ceiling: 900
Heat Index: 54°   Visibility: 10mi
Dew Point: 50°   Wind: 0mph
Humidity: 86%   Direction: NA
Pressure: 30.11"   Gusts: NA
Location:  31.4918°N, 93.8786°W
Report Text: KAQV 190032Z AUTO 00000KT 10SM OVC009 12/10 A3011 RMK AO2 T01220100
Loading
Personal Weather Stations






























Interactive Weather Map New forecast layout! Learn more

10-Day Weather Forecast

Advertisements
Track Severe Weather on mobile